Terminal Aerodrome Forecast
Issued by NWS Wilmington, OH

Current Version | Previous Version | Text Only | Print | Product List | Glossary Off
Versions: 1 2 3 4 5 6 7 8 9 10 11 12 13 14 15 16 17 18 19 20 21 22 23

000
FTUS41 KILN 221738 AAA
TAFCMH
TAF AMD
KCMH 221738Z 2218/2318 18011G24KT P6SM VCSH OVC090
     FM222000 17011G24KT P6SM -SHRA OVC060
     FM230000 18012G21KT P6SM -SHRA OVC028
     FM230800 22011G20KT P6SM OVC035
     FM231400 22012G24KT P6SM OVC025=

USA.gov is the U.S. government's official web portal to all federal, state and local government web resources and services.